createdAt,value
2019-05-06T00:01:33.773Z,99.40
2019-05-06T00:06:38.215Z,99.60
2019-05-06T00:11:44.838Z,99.70
2019-05-06T00:16:50.273Z,99.60
2019-05-06T00:22:14.493Z,99.50
2019-05-06T00:27:40.536Z,99.40
2019-05-06T00:32:45.869Z,99.50
2019-05-06T00:37:53.525Z,99.70
2019-05-06T00:43:17.311Z,99.90
2019-05-06T00:48:24.390Z,99.80
2019-05-06T00:53:31.087Z,99.80
2019-05-06T00:58:36.325Z,99.80
2019-05-06T01:04:00.853Z,99.80
2019-05-06T01:09:26.270Z,99.90
2019-05-06T01:14:35.085Z,99.90
2019-05-06T01:19:59.064Z,99.90
2019-05-06T01:25:05.710Z,99.90
2019-05-06T01:30:30.350Z,99.90
2019-05-06T01:35:54.922Z,99.90
2019-05-06T01:41:33.862Z,99.90
2019-05-06T01:46:38.662Z,99.90
2019-05-06T01:51:43.869Z,99.90
2019-05-06T01:56:49.837Z,99.90
2019-05-06T02:02:15.150Z,99.90
2019-05-06T02:07:20.421Z,99.90
2019-05-06T02:12:25.686Z,99.90
2019-05-06T02:17:30.683Z,99.90
2019-05-06T02:22:37.473Z,99.90
2019-05-06T02:27:44.409Z,99.90
2019-05-06T02:32:59.924Z,99.90
2019-05-06T02:38:05.132Z,99.90
2019-05-06T02:43:13.458Z,99.90
2019-05-06T02:48:25.623Z,99.90
2019-05-06T02:53:33.133Z,99.90
2019-05-06T02:58:37.550Z,99.90
2019-05-06T03:04:04.437Z,99.90
2019-05-06T03:09:09.064Z,99.90
2019-05-06T03:14:14.287Z,99.90
2019-05-06T03:19:34.185Z,99.90
2019-05-06T03:24:43.605Z,99.90
2019-05-06T03:29:47.991Z,99.90
2019-05-06T03:35:16.502Z,99.90
2019-05-06T03:40:02.779Z,99.90
2019-05-06T03:45:09.630Z,99.90
2019-05-06T03:50:15.388Z,99.90
2019-05-06T03:55:23.321Z,99.90
2019-05-06T04:00:27.546Z,99.90
2019-05-06T04:05:33.415Z,99.90
2019-05-06T04:10:58.234Z,99.90
2019-05-06T04:16:30.344Z,99.90
2019-05-06T04:21:56.385Z,99.90
2019-05-06T04:27:42.960Z,99.90
2019-05-06T04:33:12.934Z,99.90
2019-05-06T04:38:16.197Z,99.90
2019-05-06T04:43:23.520Z,99.90
2019-05-06T04:48:28.619Z,99.90
2019-05-06T04:53:34.244Z,99.90
2019-05-06T04:58:42.735Z,99.90
2019-05-06T05:03:47.296Z,99.90
2019-05-06T05:08:53.895Z,99.90
2019-05-06T05:14:25.330Z,99.90
2019-05-06T05:19:28.815Z,99.90
2019-05-06T05:24:35.325Z,99.90
2019-05-06T05:29:42.336Z,99.90
2019-05-06T05:34:47.760Z,99.90
2019-05-06T05:40:12.939Z,99.90
2019-05-06T05:45:18.604Z,99.90
2019-05-06T05:50:44.848Z,99.90
2019-05-06T05:55:52.738Z,99.90
2019-05-06T06:00:58.326Z,99.90
2019-05-06T06:06:03.608Z,99.90
2019-05-06T06:22:22.784Z,96.80
2019-05-06T06:27:29.068Z,94.00
2019-05-06T06:32:34.565Z,91.50
2019-05-06T06:37:42.674Z,87.60
2019-05-06T06:43:08.815Z,85.10
2019-05-06T06:48:13.786Z,83.30
2019-05-06T06:53:19.040Z,83.30
2019-05-06T06:58:32.865Z,82.50
2019-05-06T07:03:40.124Z,76.90
2019-05-06T07:08:45.418Z,75.30
2019-05-06T07:13:53.501Z,74.50
2019-05-06T07:18:58.671Z,72.50
2019-05-06T07:24:03.892Z,70.10
2019-05-06T07:29:16.817Z,69.80
2019-05-06T07:34:15.619Z,69.40
2019-05-06T07:39:23.790Z,66.80
2019-05-06T07:44:28.901Z,64.10
2019-05-06T07:49:34.216Z,63.90
2019-05-06T07:54:39.439Z,56.60
2019-05-06T07:59:44.657Z,56.20
2019-05-06T08:04:49.769Z,54.10
2019-05-06T08:10:13.942Z,52.00
2019-05-06T08:15:18.979Z,52.10
2019-05-06T08:20:27.846Z,49.00
2019-05-06T08:25:42.514Z,46.00
2019-05-06T08:30:47.216Z,45.50
2019-05-06T08:35:53.314Z,42.70
2019-05-06T08:40:59.006Z,43.60
2019-05-06T08:46:03.998Z,42.80
2019-05-06T08:51:12.697Z,40.80
2019-05-06T08:56:19.256Z,41.80
2019-05-06T09:01:28.684Z,40.70
2019-05-06T09:06:34.514Z,41.80
2019-05-06T09:11:42.859Z,39.50
2019-05-06T09:16:50.364Z,39.50
2019-05-06T09:21:53.614Z,38.10
2019-05-06T09:27:00.268Z,36.90
2019-05-06T09:32:07.203Z,38.50
2019-05-06T09:37:14.022Z,36.90
2019-05-06T09:42:19.604Z,34.60
2019-05-06T09:47:42.716Z,32.00
2019-05-06T09:52:47.823Z,33.70
2019-05-06T09:58:07.005Z,34.30
2019-05-06T10:03:12.479Z,35.80
2019-05-06T10:08:17.759Z,34.30
2019-05-06T10:13:22.886Z,35.40
2019-05-06T10:18:28.053Z,35.10
2019-05-06T10:23:33.245Z,36.70
2019-05-06T10:28:39.924Z,37.00
2019-05-06T10:34:03.588Z,31.90
2019-05-06T10:39:12.665Z,30.50
2019-05-06T10:44:23.944Z,30.90
2019-05-06T10:49:29.369Z,33.20
2019-05-06T10:54:34.617Z,32.10
2019-05-06T10:59:39.794Z,32.70
2019-05-06T11:04:44.777Z,31.30
2019-05-06T11:09:49.738Z,31.30
2019-05-06T11:14:55.753Z,30.40
2019-05-06T11:20:06.183Z,31.00
2019-05-06T11:25:08.178Z,30.90
2019-05-06T11:30:21.882Z,33.50
2019-05-06T11:35:32.816Z,33.70
2019-05-06T11:40:38.166Z,30.40
2019-05-06T11:45:43.407Z,30.50
2019-05-06T11:50:49.890Z,30.40
2019-05-06T11:55:55.249Z,31.60
2019-05-06T12:01:02.728Z,31.50
2019-05-06T12:06:07.976Z,32.80
2019-05-06T12:11:13.184Z,36.00
2019-05-06T12:16:18.434Z,35.20
2019-05-06T12:21:23.411Z,37.00
2019-05-06T12:26:28.357Z,36.60
2019-05-06T12:31:33.592Z,37.10
2019-05-06T12:36:38.563Z,35.40
2019-05-06T12:41:47.999Z,36.20
2019-05-06T12:47:13.443Z,35.90
2019-05-06T12:52:19.289Z,36.70
2019-05-06T12:57:24.535Z,36.50
2019-05-06T13:02:29.859Z,35.10
2019-05-06T13:07:54.258Z,35.80
2019-05-06T13:13:00.986Z,36.10
2019-05-06T13:18:07.345Z,33.00
2019-05-06T13:23:24.632Z,33.80
2019-05-06T13:28:30.466Z,33.90
2019-05-06T13:33:49.093Z,33.30
2019-05-06T13:39:09.581Z,35.40
2019-05-06T13:44:13.174Z,35.60
2019-05-06T13:49:23.007Z,35.70
2019-05-06T13:54:28.521Z,36.80
2019-05-06T13:59:35.467Z,35.80
2019-05-06T14:04:44.321Z,33.80
2019-05-06T14:09:47.969Z,33.80
2019-05-06T14:14:52.953Z,33.00
2019-05-06T14:19:58.248Z,34.40
2019-05-06T14:25:12.542Z,36.60
2019-05-06T14:30:22.780Z,36.10
2019-05-06T14:35:28.244Z,37.10
2019-05-06T14:40:34.999Z,38.30
2019-05-06T14:45:42.222Z,38.10
2019-05-06T14:50:48.749Z,38.90
2019-05-06T14:55:55.406Z,38.70
2019-05-06T15:01:03.512Z,36.50
2019-05-06T15:06:07.222Z,33.70
2019-05-06T15:11:12.597Z,36.10
2019-05-06T15:16:17.803Z,37.40
2019-05-06T15:21:36.992Z,37.30
2019-05-06T15:26:30.382Z,37.00
2019-05-06T15:31:53.196Z,39.20
2019-05-06T15:37:09.259Z,38.50
2019-05-06T15:42:14.267Z,37.60
2019-05-06T15:47:19.572Z,37.60
2019-05-06T15:52:24.958Z,37.80
2019-05-06T15:57:32.300Z,38.40
2019-05-06T16:02:37.174Z,37.10
2019-05-06T16:07:43.408Z,36.90
2019-05-06T16:12:49.628Z,37.80
2019-05-06T16:17:54.548Z,37.60
2019-05-06T16:23:03.256Z,38.30
2019-05-06T16:28:08.691Z,38.10
2019-05-06T16:33:16.004Z,37.70
2019-05-06T16:38:22.817Z,37.90
2019-05-06T16:43:27.516Z,38.80
2019-05-06T16:48:32.699Z,38.10
2019-05-06T16:53:38.088Z,38.60
2019-05-06T16:58:47.204Z,39.30
2019-05-06T17:03:53.289Z,39.40
2019-05-06T17:08:58.733Z,39.70
2019-05-06T17:14:03.925Z,39.80
2019-05-06T17:19:09.522Z,39.40
2019-05-06T17:24:14.929Z,39.60
2019-05-06T17:29:38.321Z,39.70
2019-05-06T17:34:45.355Z,40.10
2019-05-06T17:40:06.670Z,40.10
2019-05-06T17:44:58.484Z,39.60
2019-05-06T17:50:05.552Z,39.10
2019-05-06T17:55:11.886Z,39.50
2019-05-06T18:05:49.159Z,39.90
2019-05-06T18:10:54.278Z,41.00
2019-05-06T18:15:59.385Z,42.80
2019-05-06T18:21:04.507Z,43.10
2019-05-06T18:26:09.484Z,44.50
2019-05-06T18:31:33.965Z,45.50
2019-05-06T18:36:39.154Z,46.20
2019-05-06T18:41:46.139Z,46.80
2019-05-06T18:46:53.019Z,47.10
2019-05-06T18:51:58.530Z,48.50
2019-05-06T18:57:05.096Z,49.30
2019-05-06T19:02:12.939Z,49.90
2019-05-06T19:07:18.089Z,51.00
2019-05-06T19:12:31.847Z,51.70
2019-05-06T19:17:29.948Z,52.00
2019-05-06T19:22:36.709Z,53.40
2019-05-06T19:27:42.090Z,54.00
2019-05-06T19:32:47.950Z,54.60
2019-05-06T19:37:53.670Z,56.00
2019-05-06T19:42:58.950Z,58.60
2019-05-06T19:48:04.557Z,59.00
2019-05-06T19:53:11.723Z,59.20
2019-05-06T19:58:16.876Z,62.10
2019-05-06T20:03:23.190Z,63.10
2019-05-06T20:08:33.114Z,64.40
2019-05-06T20:13:38.677Z,64.20
2019-05-06T20:18:44.355Z,63.80
2019-05-06T20:23:49.916Z,63.50
2019-05-06T20:28:55.797Z,64.90
2019-05-06T20:34:02.257Z,64.40
2019-05-06T20:39:08.258Z,68.30
2019-05-06T20:44:13.858Z,68.10
2019-05-06T20:49:38.578Z,66.90
2019-05-06T20:54:44.098Z,68.90
2019-05-06T20:59:49.377Z,68.90
2019-05-06T21:04:54.579Z,70.10
2019-05-06T21:10:02.202Z,71.20
2019-05-06T21:15:26.717Z,72.80
2019-05-06T21:20:33.065Z,73.60
2019-05-06T21:25:39.237Z,75.40
2019-05-06T21:30:44.837Z,74.90
2019-05-06T21:35:52.266Z,75.80
2019-05-06T21:40:57.000Z,76.10
2019-05-06T21:46:02.563Z,78.10
2019-05-06T21:51:07.921Z,79.30
2019-05-06T21:56:13.262Z,79.00
2019-05-06T22:01:18.483Z,79.80
2019-05-06T22:06:24.388Z,80.60
2019-05-06T22:11:31.893Z,81.00
2019-05-06T22:16:56.201Z,81.40
2019-05-06T22:22:05.907Z,82.40
2019-05-06T22:27:12.289Z,82.30
2019-05-06T22:32:46.565Z,82.40
2019-05-06T22:38:12.340Z,83.30
2019-05-06T22:43:17.966Z,88.10
2019-05-06T22:48:23.520Z,89.90
2019-05-06T22:53:48.172Z,90.20
2019-05-06T22:58:53.688Z,90.60
2019-05-06T23:04:21.721Z,90.70
2019-05-06T23:09:26.306Z,90.60
2019-05-06T23:14:52.925Z,90.50
2019-05-06T23:19:57.970Z,90.30
2019-05-06T23:25:03.297Z,90.40
2019-05-06T23:30:09.134Z,90.30
2019-05-06T23:35:14.777Z,89.90
2019-05-06T23:40:57.407Z,89.90
2019-05-06T23:46:38.527Z,90.00
2019-05-06T23:52:22.726Z,90.00
2019-05-06T23:57:27.154Z,90.20
